Time;durP1;ratioP1;P1;durP2;ratioP2;P2;SDS_P1;SDS_P2;PMS_P1;PMS_P2;Temp;Humidity;BMP_temperature;BMP_pressure;BME280_temperature;BME280_humidity;BME280_pressure;Samples;Min_cycle;Max_cycle;Signal;HPM_P1;HPM_P2
2023/04/11 00:02:24;;;;;;;3.85;0.70;;;;;;;7.49;60.66;99827.34;20986808;28;20265;-79
2023/04/11 00:12:27;;;;;;;1.73;0.70;;;;;;;7.90;58.49;99820.31;20977865;28;20253;-81
2023/04/11 00:22:29;;;;;;;1.30;0.60;;;;;;;8.17;57.06;99804.97;21046158;28;20226;-82
2023/04/11 00:32:31;;;;;;;3.13;0.60;;;;;;;8.22;57.69;99835.72;21038454;28;20194;-81
2023/04/11 00:42:33;;;;;;;4.17;0.80;;;;;;;7.78;57.95;99815.38;20946855;28;20199;-79
2023/04/11 00:52:36;;;;;;;5.73;0.77;;;;;;;8.07;56.80;99820.22;21055087;28;20514;-79
2023/04/11 01:02:41;;;;;;;2.43;0.60;;;;;;;8.42;55.39;99820.84;21015049;28;20206;-78
2023/04/11 01:12:44;;;;;;;5.03;0.97;;;;;;;8.09;57.07;99810.31;20985185;28;20195;-78
2023/04/11 01:22:48;;;;;;;5.90;1.07;;;;;;;8.37;56.12;99812.63;21001851;28;20251;-82
2023/04/11 01:32:50;;;;;;;3.88;0.80;;;;;;;7.95;56.37;99820.94;20910932;28;20199;-81
2023/04/11 01:42:53;;;;;;;5.50;1.50;;;;;;;7.66;57.80;99804.03;20970286;28;20210;-79
2023/04/11 01:52:55;;;;;;;7.50;1.37;;;;;;;7.58;57.66;99799.25;20954533;28;20191;-81
2023/04/11 02:02:57;;;;;;;7.50;1.55;;;;;;;7.71;56.84;99789.81;20987635;28;20229;-79
2023/04/11 02:12:59;;;;;;;8.37;2.07;;;;;;;7.49;58.17;99802.06;20987438;28;20203;-80
2023/04/11 02:23:03;;;;;;;6.40;2.43;;;;;;;7.65;56.38;99819.25;20977357;28;20852;-80
2023/04/11 02:33:05;;;;;;;7.65;2.13;;;;;;;8.50;54.42;99822.81;20984697;28;20195;-78
2023/04/11 02:43:07;;;;;;;11.18;3.03;;;;;;;7.83;56.26;99820.84;20994232;28;20615;-79
2023/04/11 02:53:10;;;;;;;12.93;3.00;;;;;;;7.34;57.05;99834.34;20981840;28;20469;-78
2023/04/11 03:03:17;;;;;;;15.17;3.37;;;;;;;7.71;55.33;99848.81;21036591;28;20628;-79
2023/04/11 03:13:22;;;;;;;8.77;2.80;;;;;;;7.04;56.98;99840.94;20981323;28;20220;-78
2023/04/11 03:23:25;;;;;;;9.40;3.03;;;;;;;7.56;55.27;99840.88;20959429;28;20235;-78
2023/04/11 03:33:27;;;;;;;9.55;2.78;;;;;;;7.87;53.98;99841.50;20972568;28;20187;-78
2023/04/11 03:43:29;;;;;;;13.30;3.17;;;;;;;7.77;54.74;99847.47;21044920;28;20789;-78
2023/04/11 03:53:33;;;;;;;12.00;2.78;;;;;;;7.66;55.48;99857.41;21000473;28;20443;-81
2023/04/11 04:03:42;;;;;;;15.83;3.10;;;;;;;7.50;55.32;99864.69;20956079;28;20219;-79
2023/04/11 04:13:47;;;;;;;11.33;3.00;;;;;;;7.34;55.77;99875.63;20947220;28;20232;-78
2023/04/11 04:23:52;;;;;;;11.07;3.30;;;;;;;7.07;56.27;99873.97;21028082;28;20226;-77
2023/04/11 04:34:08;;;;;;;13.20;4.57;;;;;;;7.14;55.38;99884.69;20975546;28;20190;-78
2023/04/11 04:44:15;;;;;;;14.63;3.55;;;;;;;7.37;55.05;99895.41;20947476;28;20232;-78
2023/04/11 04:54:24;;;;;;;14.80;3.70;;;;;;;7.02;55.77;99917.06;20963816;28;20217;-78
2023/04/11 05:04:27;;;;;;;14.10;4.03;;;;;;;6.96;55.59;99909.97;20956258;28;20264;-80
2023/04/11 05:14:32;;;;;;;9.13;3.70;;;;;;;6.63;54.15;99920.78;20988212;28;20503;-79
2023/04/11 05:24:36;;;;;;;10.63;3.73;;;;;;;7.24;52.51;99935.72;20937622;28;20708;-81
2023/04/11 05:34:54;;;;;;;10.73;3.10;;;;;;;6.51;53.51;99954.19;20963111;28;20203;-77
2023/04/11 05:45:12;;;;;;;12.27;3.20;;;;;;;7.09;52.84;99955.88;20917529;28;20508;-79
2023/04/11 05:55:14;;;;;;;12.70;3.70;;;;;;;6.93;53.80;99963.09;20898472;28;20196;-78
2023/04/11 06:05:16;;;;;;;11.03;3.27;;;;;;;7.27;52.21;99974.38;20915983;28;20338;-79
2023/04/11 06:15:20;;;;;;;11.27;3.07;;;;;;;7.57;50.95;99971.75;20906290;28;20220;-79
2023/04/11 06:25:23;;;;;;;9.83;2.50;;;;;;;6.73;52.45;99992.59;20957827;28;20276;-80
2023/04/11 06:35:25;;;;;;;8.27;2.28;;;;;;;6.79;51.56;100018.53;20965283;28;20195;-80
2023/04/11 06:45:28;;;;;;;8.80;2.77;;;;;;;6.52;52.62;100042.78;20976518;28;20527;-81
2023/04/11 06:55:30;;;;;;;7.93;2.57;;;;;;;7.28;50.84;100039.78;20976552;28;20214;-80
2023/04/11 07:05:32;;;;;;;10.83;2.40;;;;;;;7.23;49.62;100049.19;20944968;28;20246;-80
2023/04/11 07:15:34;;;;;;;12.93;3.40;;;;;;;7.55;48.22;100063.94;20942985;28;20507;-81
2023/04/11 07:25:38;;;;;;;8.37;2.07;;;;;;;7.06;46.75;100086.47;20965712;28;20292;-79
2023/04/11 07:35:40;;;;;;;6.83;1.50;;;;;;;6.96;47.23;100102.78;20965059;28;20192;-79
2023/04/11 07:45:42;;;;;;;5.27;1.87;;;;;;;6.38;46.62;100109.34;20940795;28;20211;-79
2023/04/11 07:55:44;;;;;;;8.53;2.07;;;;;;;7.15;45.79;100108.94;20951496;28;20195;-80
2023/04/11 08:05:46;;;;;;;7.20;2.53;;;;;;;7.32;44.39;100116.59;20956035;28;20256;-80
2023/04/11 08:15:49;;;;;;;3.67;1.43;;;;;;;7.49;44.18;100111.00;20971410;28;20495;-78
2023/04/11 08:25:52;;;;;;;8.15;2.05;;;;;;;8.33;44.06;100101.34;20995507;28;20271;-81
2023/04/11 08:35:54;;;;;;;6.68;2.15;;;;;;;8.09;43.89;100107.47;21049361;28;20665;-81
2023/04/11 08:46:01;;;;;;;5.63;1.73;;;;;;;7.19;43.64;100135.22;20978802;28;20272;-81
2023/04/11 08:56:13;;;;;;;5.63;1.70;;;;;;;7.49;42.44;100116.63;20984935;28;20195;-80
2023/04/11 09:06:16;;;;;;;7.30;1.80;;;;;;;8.27;40.00;100137.22;20973521;28;20688;-85
2023/04/11 09:16:19;;;;;;;6.43;1.10;;;;;;;8.95;39.48;100143.09;20960522;28;20271;-82
2023/04/11 09:26:28;;;;;;;7.43;1.63;;;;;;;8.14;40.93;100144.69;21003996;28;20230;-81
2023/04/11 09:36:30;;;;;;;4.07;1.13;;;;;;;8.82;37.73;100137.34;20956061;28;20187;-83
2023/04/11 09:46:33;;;;;;;6.35;1.48;;;;;;;9.96;35.99;100149.72;21005904;28;20248;-82
2023/04/11 09:56:35;;;;;;;5.83;1.63;;;;;;;9.10;36.83;100162.28;20968458;28;20196;-82
2023/04/11 10:06:58;;;;;;;4.30;0.70;;;;;;;8.98;36.35;100150.88;20947260;28;20207;-81
2023/04/11 10:17:19;;;;;;;2.95;0.95;;;;;;;8.68;35.29;100147.97;20973714;28;20195;-79
2023/04/11 10:27:49;;;;;;;4.43;0.90;;;;;;;9.40;34.49;100163.97;20863750;28;20555;-78
2023/04/11 10:37:52;;;;;;;3.07;1.17;;;;;;;10.59;31.77;100148.56;20854879;28;20196;-79
2023/04/11 10:48:00;;;;;;;6.17;1.13;;;;;;;10.19;33.25;100168.81;20886865;28;21751;-80
2023/04/11 10:58:07;;;;;;;7.78;1.70;;;;;;;10.18;33.47;100161.53;20916936;28;20195;-82
2023/04/11 11:08:10;;;;;;;3.38;1.17;;;;;;;9.54;33.88;100175.84;20902773;28;20273;-79
2023/04/11 11:18:47;;;;;;;3.85;1.33;;;;;;;10.20;32.30;100169.66;20885295;28;20203;-80
2023/04/11 11:29:00;;;;;;;4.78;1.30;;;;;;;10.50;32.38;100159.09;20887658;28;20224;-79
2023/04/11 11:39:04;;;;;;;2.67;1.10;;;;;;;8.97;32.46;100189.47;20904557;28;20539;-78
2023/04/11 11:49:07;;;;;;;4.87;1.07;;;;;;;9.41;32.41;100179.72;20877732;28;20272;-78
2023/04/11 11:59:09;;;;;;;6.88;1.00;;;;;;;9.34;30.44;100181.38;20899796;28;20662;-79
2023/04/11 12:09:11;;;;;;;4.80;1.20;;;;;;;9.70;31.35;100192.19;20882928;28;20220;-79
2023/04/11 12:19:14;;;;;;;6.88;1.08;;;;;;;8.97;34.58;100217.63;20912358;28;20253;-80
2023/04/11 12:29:16;;;;;;;3.75;1.17;;;;;;;9.78;32.82;100199.78;20983938;28;20280;-80
2023/04/11 12:39:18;;;;;;;6.28;1.38;;;;;;;10.26;31.43;100191.66;20972728;28;20241;-80
2023/04/11 12:49:20;;;;;;;5.93;1.05;;;;;;;10.23;30.70;100191.50;20962545;28;20203;-79
2023/04/11 12:59:27;;;;;;;7.30;0.98;;;;;;;9.70;31.03;100212.75;20969926;28;20195;-78
2023/04/11 13:09:33;;;;;;;4.30;0.60;;;;;;;10.94;27.74;100188.56;20981490;28;20738;-78
2023/04/11 13:19:35;;;;;;;5.35;0.73;;;;;;;10.32;29.19;100211.19;20978091;28;20254;-79
2023/04/11 13:29:38;;;;;;;3.67;0.70;;;;;;;10.54;26.96;100196.75;20916283;28;20274;-79
2023/04/11 13:39:41;;;;;;;2.55;0.80;;;;;;;10.83;26.73;100207.97;20900124;28;20574;-79
2023/04/11 13:49:43;;;;;;;1.60;0.30;;;;;;;10.65;28.14;100203.63;20925258;28;20256;-80
2023/04/11 13:59:45;;;;;;;4.32;0.50;;;;;;;11.74;24.71;100193.78;20922598;28;20195;-79
2023/04/11 14:09:49;;;;;;;2.78;0.70;;;;;;;11.75;25.21;100196.25;20936980;28;20335;-77
2023/04/11 14:19:51;;;;;;;3.05;0.30;;;;;;;11.24;24.51;100198.53;20940050;28;20254;-80
2023/04/11 14:29:53;;;;;;;3.13;0.40;;;;;;;11.12;24.44;100197.69;20975154;28;20215;-76
2023/04/11 14:39:55;;;;;;;1.70;0.50;;;;;;;11.64;23.21;100198.72;20954503;28;20209;-79
2023/04/11 14:49:57;;;;;;;2.83;0.52;;;;;;;11.43;24.32;100178.22;20953589;28;20293;-79
2023/04/11 15:00:01;;;;;;;4.50;0.47;;;;;;;11.31;23.52;100178.16;20961068;28;20196;-79
2023/04/11 15:10:04;;;;;;;3.95;0.50;;;;;;;11.55;24.88;100181.03;20941083;28;20257;-79
2023/04/11 15:20:08;;;;;;;1.70;0.50;;;;;;;10.70;24.59;100168.72;20940096;28;20275;-77
2023/04/11 15:30:11;;;;;;;1.70;0.40;;;;;;;11.97;24.54;100153.31;20945774;28;20296;-79
2023/04/11 15:40:14;;;;;;;1.63;0.45;;;;;;;10.66;24.97;100160.13;20946118;28;20199;-77
2023/04/11 15:50:16;;;;;;;3.20;0.55;;;;;;;11.04;25.59;100147.75;20963733;28;20599;-79
2023/04/11 16:00:21;;;;;;;5.72;1.00;;;;;;;10.89;25.71;100152.06;20962009;28;20195;-78
2023/04/11 16:10:24;;;;;;;4.32;0.80;;;;;;;11.06;25.73;100151.06;20908919;28;20267;-77
2023/04/11 16:20:26;;;;;;;3.30;0.40;;;;;;;11.25;27.37;100125.91;20920004;28;20509;-79
2023/04/11 16:30:28;;;;;;;3.60;0.87;;;;;;;11.46;26.19;100129.47;20936127;28;20222;-78
2023/04/11 16:40:32;;;;;;;4.63;0.90;;;;;;;11.33;28.83;100125.78;20923876;28;20534;-78
2023/04/11 16:50:35;;;;;;;4.03;0.82;;;;;;;11.46;30.23;100114.50;20933319;28;20211;-79
2023/04/11 17:00:37;;;;;;;6.10;1.02;;;;;;;11.05;30.80;100133.28;20917707;28;20203;-79
2023/04/11 17:10:39;;;;;;;3.65;0.80;;;;;;;11.44;29.75;100123.31;20902563;28;20220;-77
2023/04/11 17:20:42;;;;;;;6.65;1.35;;;;;;;10.71;31.46;100126.03;20904335;28;20360;-79
2023/04/11 17:30:48;;;;;;;4.70;0.82;;;;;;;10.48;31.31;100136.00;20898723;28;20518;-79
2023/04/11 17:40:50;;;;;;;4.60;1.43;;;;;;;10.84;30.76;100127.72;20904067;28;20836;-78
2023/04/11 17:50:58;;;;;;;7.35;1.00;;;;;;;10.57;34.77;100114.22;20952626;28;20272;-76
2023/04/11 18:01:02;;;;;;;4.13;0.90;;;;;;;10.13;31.72;100102.47;20934488;28;20183;-77
2023/04/11 18:11:05;;;;;;;2.85;1.00;;;;;;;10.37;31.96;100117.88;20963204;28;20570;-78
2023/04/11 18:21:07;;;;;;;2.67;1.30;;;;;;;10.70;32.48;100107.44;20936651;28;20219;-77
2023/04/11 18:31:09;;;;;;;8.07;1.90;;;;;;;9.84;35.14;100111.00;20975275;28;20222;-78
2023/04/11 18:41:12;;;;;;;3.60;0.90;;;;;;;9.75;36.31;100113.91;20995071;28;20312;-80
2023/04/11 18:51:14;;;;;;;6.63;3.67;;;;;;;9.63;37.57;100112.97;20969282;28;20313;-82
2023/04/11 19:01:16;;;;;;;12.00;4.20;;;;;;;9.70;37.71;100111.25;20972182;28;20256;-77
2023/04/11 19:11:19;;;;;;;11.93;3.93;;;;;;;9.25;38.34;100105.38;20952821;28;20219;-78
2023/04/11 19:21:21;;;;;;;6.03;2.20;;;;;;;9.47;37.18;100091.00;20953602;28;20224;-80
2023/04/11 19:31:23;;;;;;;5.88;1.23;;;;;;;9.47;38.67;100091.00;20885247;28;20245;-80
2023/04/11 19:41:28;;;;;;;12.55;4.80;;;;;;;9.35;38.62;100079.63;20900594;28;20493;-79
2023/04/11 19:51:30;;;;;;;4.60;1.27;;;;;;;9.05;39.32;100061.06;20896416;28;20215;-81
2023/04/11 20:01:32;;;;;;;8.65;4.50;;;;;;;8.94;40.12;100049.38;20884576;28;20196;-80
2023/04/11 20:11:36;;;;;;;11.70;6.30;;;;;;;8.85;41.28;100038.16;20897935;28;20686;-77
2023/04/11 20:21:38;;;;;;;11.60;5.28;;;;;;;8.84;40.50;100025.25;20923214;28;20569;-79
2023/04/11 20:31:41;;;;;;;6.63;2.42;;;;;;;8.81;40.87;100006.22;20935201;28;20217;-80
2023/04/11 20:41:44;;;;;;;9.20;3.10;;;;;;;8.60;40.88;99991.22;20955020;28;20195;-80
2023/04/11 20:51:46;;;;;;;10.20;2.60;;;;;;;8.29;42.15;99976.59;20961744;28;20219;-80
2023/04/11 21:01:49;;;;;;;6.23;1.97;;;;;;;8.51;41.18;99973.56;20956240;28;20225;-79
2023/04/11 21:11:51;;;;;;;4.78;1.35;;;;;;;8.53;41.26;99953.53;20946699;28;20223;-79
2023/04/11 21:21:53;;;;;;;4.38;1.52;;;;;;;8.55;41.41;99949.19;20964842;28;20227;-81
2023/04/11 21:31:55;;;;;;;5.38;1.63;;;;;;;8.55;41.52;99929.50;20921412;28;20220;-79
2023/04/11 21:41:58;;;;;;;9.82;2.17;;;;;;;8.61;40.75;99910.44;20911182;28;20222;-80
2023/04/11 21:52:01;;;;;;;4.93;1.27;;;;;;;8.02;41.63;99904.75;20916575;28;20430;-79
2023/04/11 22:02:03;;;;;;;6.05;1.75;;;;;;;7.90;42.31;99897.00;20904775;28;20192;-80
2023/04/11 22:12:05;;;;;;;5.60;1.50;;;;;;;7.94;42.36;99881.13;20891418;28;20223;-81
2023/04/11 22:22:07;;;;;;;4.43;1.07;;;;;;;8.07;42.65;99868.03;20902553;28;20286;-80
2023/04/11 22:32:10;;;;;;;3.20;1.20;;;;;;;7.83;42.02;99863.00;20904461;28;20262;-81
2023/04/11 22:42:13;;;;;;;5.57;1.40;;;;;;;7.85;41.51;99843.81;20900458;28;20218;-81
2023/04/11 22:52:17;;;;;;;3.10;1.00;;;;;;;8.03;40.55;99819.25;20895507;28;20677;-78
2023/04/11 23:02:20;;;;;;;4.45;1.13;;;;;;;7.83;41.45;99789.09;20888626;28;20192;-78
2023/04/11 23:12:22;;;;;;;3.40;0.80;;;;;;;8.01;40.61;99763.38;20891814;28;20239;-78
2023/04/11 23:22:25;;;;;;;3.22;0.88;;;;;;;8.15;40.47;99758.31;20935290;28;20269;-77
2023/04/11 23:32:27;;;;;;;6.97;1.27;;;;;;;8.17;40.82;99745.91;20959570;28;20211;-78
2023/04/11 23:42:29;;;;;;;3.67;0.70;;;;;;;8.21;39.34;99713.16;20976591;28;20195;-78
2023/04/11 23:52:31;;;;;;;4.43;0.70;;;;;;;8.37;40.64;99695.34;20983863;28;20207;-79
